Bowling Green, Ohio
Current Conditions -  °F | °C
As of 7:53 AM on Saturday 25 Oct 2014 (Local Time) from KTDZ Reporting Station
Haze Haze  
Wind Chill: 52°   Ceiling: 4800
Heat Index: 52°   Visibility: 6mi
Dew Point: 48°   Wind: 8mph
Humidity: 86%   Direction: 220°SW
Pressure: 29.89"   Gusts: NA
Location:  41.38°N, 83.65°W
Report Text: KTDZ 251153Z AUTO 22007KT 6SM BR OVC048 11/09 A2989 RMK AO2 SLP122 T01110089 10111 20083 56010 TSNO
Loading
Personal Weather Stations






























Interactive Weather Map
Tropical Storm Tracking
New forecast layout! Learn more

10-Day Weather Forecast

Advertisements
Track Severe Weather on mobile